createdAt,value
2023-02-17T00:00:32.820Z,100300.97
2023-02-17T00:03:00.224Z,100310.00
2023-02-17T00:05:27.924Z,100297.31
2023-02-17T00:07:55.212Z,100300.94
2023-02-17T00:10:23.613Z,100289.84
2023-02-17T00:12:50.818Z,100301.66
2023-02-17T00:15:18.175Z,100305.75
2023-02-17T00:17:45.121Z,100305.59
2023-02-17T00:20:12.860Z,100300.31
2023-02-17T00:22:39.704Z,100292.53
2023-02-17T00:25:06.967Z,100306.72
2023-02-17T00:27:35.417Z,100297.69
2023-02-17T00:30:02.258Z,100301.03
2023-02-17T00:32:29.184Z,100305.63
2023-02-17T00:34:56.088Z,100310.59
2023-02-17T00:37:23.685Z,100309.34
2023-02-17T00:39:50.832Z,100311.47
2023-02-17T00:42:17.651Z,100308.91
2023-02-17T00:44:45.912Z,100304.56
2023-02-17T00:47:12.828Z,100303.91
2023-02-17T00:49:39.737Z,100306.19
2023-02-17T00:52:06.637Z,100299.38
2023-02-17T00:54:33.534Z,100305.59
2023-02-17T00:57:00.640Z,100289.50
2023-02-17T00:59:27.723Z,100302.03
2023-02-17T01:01:56.035Z,100308.25
2023-02-17T01:04:23.265Z,100301.00
2023-02-17T01:06:50.253Z,100304.38
2023-02-17T01:09:17.132Z,100308.13
2023-02-17T01:11:44.568Z,100312.22
2023-02-17T01:14:14.508Z,100314.69
2023-02-17T01:16:44.776Z,100307.84
2023-02-17T01:19:15.742Z,100323.50
2023-02-17T01:21:42.916Z,100317.22
2023-02-17T01:24:12.048Z,100331.53
2023-02-17T01:26:40.069Z,100332.94
2023-02-17T01:29:07.917Z,100338.47
2023-02-17T01:31:35.211Z,100328.88
2023-02-17T01:34:04.086Z,100334.41
2023-02-17T01:36:32.948Z,100327.66
2023-02-17T01:39:00.908Z,100333.03
2023-02-17T01:41:28.488Z,100331.66
2023-02-17T01:44:06.921Z,100314.97
2023-02-17T01:46:34.533Z,100310.41
2023-02-17T01:49:03.427Z,100300.44
2023-02-17T01:51:34.916Z,100309.28
2023-02-17T01:54:05.942Z,100302.13
2023-02-17T01:56:38.518Z,100305.13
2023-02-17T01:59:10.224Z,100289.69
2023-02-17T02:01:37.709Z,100298.63
2023-02-17T02:04:06.833Z,100297.31
2023-02-17T02:06:38.816Z,100294.78
2023-02-17T02:09:09.384Z,100290.13
2023-02-17T02:11:36.598Z,100295.00
2023-02-17T02:14:07.252Z,100284.97
2023-02-17T02:16:42.017Z,100281.75
2023-02-17T02:19:27.576Z,100289.44
2023-02-17T02:22:15.980Z,100280.19
2023-02-17T02:24:59.838Z,100288.09
2023-02-17T02:27:42.365Z,100301.03
2023-02-17T02:30:45.219Z,100317.13
2023-02-17T02:33:22.404Z,100312.69
2023-02-17T02:35:59.011Z,100299.41
2023-02-17T02:38:31.843Z,100316.50
2023-02-17T02:41:04.948Z,100314.38
2023-02-17T02:43:32.709Z,100315.44
2023-02-17T02:45:59.491Z,100309.13
2023-02-17T02:48:27.870Z,100298.13
2023-02-17T02:51:05.494Z,100310.91
2023-02-17T02:54:17.066Z,100318.63
2023-02-17T02:56:57.976Z,100290.91
2023-02-17T02:59:42.113Z,100287.75
2023-02-17T03:02:17.413Z,100287.53
2023-02-17T03:04:53.314Z,100284.91
2023-02-17T03:07:24.975Z,100276.66
2023-02-17T03:09:55.109Z,100269.50
2023-02-17T03:12:23.484Z,100276.38
2023-02-17T03:14:55.585Z,100277.03
2023-02-17T03:17:22.719Z,100270.38
2023-02-17T03:19:51.283Z,100261.31
2023-02-17T03:22:23.931Z,100256.72
2023-02-17T03:24:51.047Z,100253.06
2023-02-17T03:27:17.984Z,100246.34
2023-02-17T03:29:45.350Z,100227.16
2023-02-17T03:32:12.602Z,100230.34
2023-02-17T03:34:39.552Z,100231.84
2023-02-17T03:37:07.835Z,100221.78
2023-02-17T03:39:34.778Z,100219.25
2023-02-17T03:42:03.134Z,100222.94
2023-02-17T03:44:30.200Z,100211.47
2023-02-17T03:46:57.024Z,100213.72
2023-02-17T03:49:24.068Z,100193.84
2023-02-17T03:51:51.242Z,100214.09
2023-02-17T03:54:19.767Z,100205.56
2023-02-17T03:56:46.469Z,100201.25
2023-02-17T03:59:13.866Z,100200.44
2023-02-17T04:01:41.082Z,100215.28
2023-02-17T04:04:08.300Z,100212.75
2023-02-17T04:06:35.451Z,100213.72
2023-02-17T04:09:03.021Z,100213.56
2023-02-17T04:11:31.210Z,100212.03
2023-02-17T04:13:58.399Z,100208.34
2023-02-17T04:16:25.296Z,100200.94
2023-02-17T04:18:52.194Z,100211.28
2023-02-17T04:21:18.955Z,100202.50
2023-02-17T04:23:45.867Z,100214.31
2023-02-17T04:26:12.641Z,100213.25
2023-02-17T04:28:42.539Z,100204.13
2023-02-17T04:31:09.929Z,100218.16
2023-02-17T04:33:37.217Z,100229.22
2023-02-17T04:36:05.112Z,100240.47
2023-02-17T04:38:33.551Z,100243.69
2023-02-17T04:41:02.071Z,100242.50
2023-02-17T04:43:29.214Z,100244.13
2023-02-17T04:45:58.552Z,100241.22
2023-02-17T04:48:26.479Z,100237.97
2023-02-17T04:50:53.867Z,100227.03
2023-02-17T04:53:20.744Z,100233.19
2023-02-17T04:55:49.055Z,100223.25
2023-02-17T04:58:15.957Z,100224.34
2023-02-17T05:00:42.708Z,100231.38
2023-02-17T05:03:10.965Z,100231.59
2023-02-17T05:05:38.076Z,100214.69
2023-02-17T05:08:06.695Z,100224.66
2023-02-17T05:10:33.822Z,100239.19
2023-02-17T05:13:01.006Z,100220.84
2023-02-17T05:15:27.808Z,100220.63
2023-02-17T05:17:54.917Z,100219.53
2023-02-17T05:20:23.551Z,100225.66
2023-02-17T05:22:50.391Z,100209.47
2023-02-17T05:25:17.577Z,100209.75
2023-02-17T05:27:44.656Z,100225.16
2023-02-17T05:30:12.420Z,100226.47
2023-02-17T05:32:39.589Z,100229.63
2023-02-17T05:35:07.444Z,100232.44
2023-02-17T05:37:36.166Z,100247.41
2023-02-17T05:40:03.618Z,100248.06
2023-02-17T05:42:30.619Z,100249.56
2023-02-17T05:44:57.474Z,100249.63
2023-02-17T05:47:27.292Z,100253.81
2023-02-17T05:49:54.787Z,100234.56
2023-02-17T05:52:21.942Z,100237.00
2023-02-17T05:54:50.421Z,100255.22
2023-02-17T05:57:17.568Z,100271.03
2023-02-17T05:59:44.304Z,100277.50
2023-02-17T06:02:11.188Z,100283.22
2023-02-17T06:04:38.436Z,100291.19
2023-02-17T06:07:05.378Z,100290.56
2023-02-17T06:09:32.212Z,100309.34
2023-02-17T06:12:00.610Z,100307.38
2023-02-17T06:14:27.780Z,100315.44
2023-02-17T06:16:54.634Z,100314.69
2023-02-17T06:19:21.789Z,100314.38
2023-02-17T06:21:48.686Z,100316.16
2023-02-17T06:24:15.514Z,100307.75
2023-02-17T06:26:42.415Z,100308.97
2023-02-17T06:29:10.784Z,100304.63
2023-02-17T06:31:37.910Z,100308.44
2023-02-17T06:34:06.635Z,100316.75
2023-02-17T06:36:34.126Z,100292.59
2023-02-17T06:39:00.980Z,100288.56
2023-02-17T06:41:28.069Z,100303.75
2023-02-17T06:43:55.086Z,100310.13
2023-02-17T06:46:23.616Z,100305.19
2023-02-17T06:48:50.938Z,100307.75
2023-02-17T06:51:18.145Z,100300.38
2023-02-17T06:53:44.875Z,100301.63
2023-02-17T06:56:12.290Z,100295.34
2023-02-17T06:58:39.428Z,100293.38
2023-02-17T07:01:06.187Z,100291.63
2023-02-17T07:03:34.370Z,100294.44
2023-02-17T07:06:01.291Z,100277.94
2023-02-17T07:08:28.407Z,100285.63
2023-02-17T07:10:55.388Z,100280.78
2023-02-17T07:13:22.584Z,100297.06
2023-02-17T07:15:49.649Z,100299.41
2023-02-17T07:18:16.539Z,100307.75
2023-02-17T07:20:44.870Z,100313.03
2023-02-17T07:23:11.747Z,100315.50
2023-02-17T07:25:38.921Z,100311.50
2023-02-17T07:28:05.698Z,100316.75
2023-02-17T07:30:32.575Z,100322.66
2023-02-17T07:32:59.343Z,100331.13
2023-02-17T07:35:26.193Z,100336.66
2023-02-17T07:37:57.412Z,100338.69
2023-02-17T07:40:25.013Z,100349.00
2023-02-17T07:42:51.845Z,100360.59
2023-02-17T07:45:19.169Z,100367.84
2023-02-17T07:47:46.477Z,100358.19
2023-02-17T07:50:13.507Z,100362.69
2023-02-17T07:52:40.622Z,100337.25
2023-02-17T07:55:09.791Z,100358.25
2023-02-17T07:57:36.840Z,100365.28
2023-02-17T08:00:04.945Z,100362.31
2023-02-17T08:02:32.118Z,100340.16
2023-02-17T08:04:58.918Z,100361.97
2023-02-17T08:07:26.183Z,100357.13
2023-02-17T08:09:52.970Z,100344.31
2023-02-17T08:12:21.852Z,100359.09
2023-02-17T08:14:48.793Z,100364.19
2023-02-17T08:17:15.644Z,100365.66
2023-02-17T08:19:48.609Z,100374.91
2023-02-17T08:22:16.051Z,100365.00
2023-02-17T08:24:43.148Z,100360.59
2023-02-17T08:27:10.283Z,100363.53
2023-02-17T08:29:38.629Z,100362.34
2023-02-17T08:32:05.554Z,100363.03
2023-02-17T08:34:32.464Z,100369.81
2023-02-17T08:36:59.554Z,100381.50
2023-02-17T08:39:26.879Z,100385.81
2023-02-17T08:41:54.103Z,100412.91
2023-02-17T08:44:21.552Z,100402.91
2023-02-17T08:46:51.646Z,100415.63
2023-02-17T08:49:21.471Z,100429.00
2023-02-17T08:51:48.433Z,100424.84
2023-02-17T08:54:15.553Z,100437.47
2023-02-17T08:56:43.892Z,100429.34
2023-02-17T08:59:11.963Z,100438.47
2023-02-17T09:01:39.737Z,100435.84
2023-02-17T09:04:10.884Z,100438.03
2023-02-17T09:06:41.278Z,100436.25
2023-02-17T09:09:10.693Z,100432.13
2023-02-17T09:11:37.890Z,100436.41
2023-02-17T09:14:07.109Z,100442.53
2023-02-17T09:16:34.501Z,100436.16
2023-02-17T09:19:01.520Z,100441.38
2023-02-17T09:21:30.017Z,100436.19
2023-02-17T09:23:57.361Z,100438.56
2023-02-17T09:26:24.263Z,100450.56
2023-02-17T09:28:51.194Z,100455.16
2023-02-17T09:31:20.788Z,100447.81
2023-02-17T09:33:48.927Z,100440.88
2023-02-17T09:36:20.421Z,100450.38
2023-02-17T09:38:49.165Z,100453.19
2023-02-17T09:41:21.023Z,100454.72
2023-02-17T09:43:48.747Z,100449.97
2023-02-17T09:46:21.917Z,100459.09
2023-02-17T09:48:51.396Z,100454.31
2023-02-17T09:51:27.186Z,100452.69
2023-02-17T09:54:03.170Z,100451.63
2023-02-17T09:56:34.233Z,100439.81
2023-02-17T09:59:03.995Z,100432.34
2023-02-17T10:01:33.249Z,100438.25
2023-02-17T10:04:06.147Z,100437.84
2023-02-17T10:06:36.131Z,100438.97
2023-02-17T10:09:13.472Z,100435.97
2023-02-17T10:11:47.814Z,100451.78
2023-02-17T10:14:22.437Z,100455.56
2023-02-17T10:16:55.067Z,100461.38
2023-02-17T10:19:29.222Z,100457.94
2023-02-17T10:22:06.190Z,100457.09
2023-02-17T10:24:34.480Z,100459.81
2023-02-17T10:27:15.228Z,100457.28
2023-02-17T10:29:57.598Z,100457.88
2023-02-17T10:32:26.084Z,100449.44
2023-02-17T10:35:15.103Z,100488.44
2023-02-17T10:37:47.971Z,100471.16
2023-02-17T10:40:21.160Z,100472.38
2023-02-17T10:42:50.734Z,100494.78
2023-02-17T10:45:26.327Z,100485.81
2023-02-17T10:47:58.333Z,100491.44
2023-02-17T10:50:26.609Z,100475.22
2023-02-17T10:52:55.280Z,100487.47
2023-02-17T10:55:31.802Z,100486.16
2023-02-17T10:58:05.000Z,100485.91
2023-02-17T11:00:32.589Z,100476.56
2023-02-17T11:02:59.567Z,100467.44
2023-02-17T11:05:29.601Z,100472.72
2023-02-17T11:08:00.905Z,100473.78
2023-02-17T11:10:31.724Z,100477.13
2023-02-17T11:12:59.779Z,100492.25
2023-02-17T11:15:31.621Z,100504.63
2023-02-17T11:18:01.402Z,100496.34
2023-02-17T11:20:34.766Z,100509.97
2023-02-17T11:23:06.239Z,100514.63
2023-02-17T11:25:36.205Z,100507.91
2023-02-17T11:28:06.040Z,100500.50
2023-02-17T11:30:35.484Z,100505.63
2023-02-17T11:33:12.608Z,100515.19
2023-02-17T11:35:50.096Z,100529.53
2023-02-17T11:38:20.040Z,100526.69
2023-02-17T11:40:57.686Z,100524.81
2023-02-17T11:43:25.260Z,100521.25
2023-02-17T11:46:06.819Z,100531.84
2023-02-17T11:49:10.462Z,100518.69
2023-02-17T11:51:51.993Z,100496.47
2023-02-17T11:54:26.218Z,100485.06
2023-02-17T11:57:02.628Z,100515.78
2023-02-17T11:59:49.692Z,100528.09
2023-02-17T12:02:24.533Z,100523.88
2023-02-17T12:05:02.298Z,100517.38
2023-02-17T12:07:39.809Z,100520.03
2023-02-17T12:10:16.906Z,100515.63
2023-02-17T12:12:58.808Z,100526.94
2023-02-17T12:15:39.285Z,100524.13
2023-02-17T12:18:22.469Z,100537.03
2023-02-17T12:20:57.765Z,100545.38
2023-02-17T12:24:01.066Z,100566.09
2023-02-17T12:26:36.811Z,100558.00
2023-02-17T12:29:20.625Z,100554.81
2023-02-17T12:32:10.525Z,100588.00
2023-02-17T12:34:42.581Z,100577.94
2023-02-17T12:37:18.530Z,100590.13
2023-02-17T12:39:52.138Z,100582.00
2023-02-17T12:42:24.795Z,100603.09
2023-02-17T12:44:59.791Z,100598.28
2023-02-17T12:47:32.553Z,100593.50
2023-02-17T12:50:05.598Z,100619.00
2023-02-17T12:52:37.317Z,100613.41
2023-02-17T12:55:13.076Z,100613.84
2023-02-17T12:57:46.658Z,100639.88
2023-02-17T13:00:22.009Z,100628.28
2023-02-17T13:02:49.584Z,100634.63
2023-02-17T13:05:24.585Z,100651.09
2023-02-17T13:08:00.041Z,100656.22
2023-02-17T13:10:34.217Z,100654.00
2023-02-17T13:13:07.307Z,100662.91
2023-02-17T13:15:39.021Z,100666.78
2023-02-17T13:18:08.560Z,100664.22
2023-02-17T13:20:51.669Z,100674.34
2023-02-17T13:23:35.314Z,100664.69
2023-02-17T13:26:36.079Z,100680.75
2023-02-17T13:29:18.500Z,100683.88
2023-02-17T13:31:50.823Z,100689.34
2023-02-17T13:34:32.924Z,100680.00
2023-02-17T13:37:03.326Z,100689.25
2023-02-17T13:39:34.076Z,100687.50
2023-02-17T13:42:01.964Z,100707.84
2023-02-17T13:44:31.103Z,100691.91
2023-02-17T13:47:02.604Z,100705.00
2023-02-17T13:49:31.478Z,100698.34
2023-02-17T13:52:08.619Z,100709.81
2023-02-17T13:54:35.772Z,100692.88
2023-02-17T13:57:02.752Z,100711.09
2023-02-17T13:59:29.857Z,100713.03
2023-02-17T14:01:56.808Z,100705.81
2023-02-17T14:04:28.227Z,100696.22
2023-02-17T14:06:58.381Z,100706.97
2023-02-17T14:09:27.950Z,100715.19
2023-02-17T14:11:56.172Z,100710.22
2023-02-17T14:14:26.232Z,100716.66
2023-02-17T14:16:59.671Z,100703.06
2023-02-17T14:19:28.426Z,100702.28
2023-02-17T14:22:02.946Z,100706.69
2023-02-17T14:24:31.887Z,100712.09
2023-02-17T14:27:01.191Z,100714.34
2023-02-17T14:29:39.695Z,100713.50
2023-02-17T14:32:06.903Z,100729.69
2023-02-17T14:34:37.158Z,100727.06
2023-02-17T14:37:17.924Z,100733.00
2023-02-17T14:39:45.016Z,100747.69
2023-02-17T14:42:12.179Z,100742.75
2023-02-17T14:44:39.864Z,100746.88
2023-02-17T14:47:07.047Z,100763.00
2023-02-17T14:49:35.456Z,100743.66
2023-02-17T14:52:18.702Z,100755.13
2023-02-17T14:54:45.706Z,100762.00
2023-02-17T14:57:14.616Z,100764.25
2023-02-17T14:59:42.454Z,100765.25
2023-02-17T15:02:18.957Z,100763.22
2023-02-17T15:04:47.444Z,100764.31
2023-02-17T15:07:17.267Z,100747.28
2023-02-17T15:09:45.914Z,100762.53
2023-02-17T15:12:15.662Z,100764.19
2023-02-17T15:14:42.563Z,100769.22
2023-02-17T15:17:10.823Z,100773.22
2023-02-17T15:19:38.457Z,100775.69
2023-02-17T15:22:07.031Z,100782.31
2023-02-17T15:24:35.424Z,100788.94
2023-02-17T15:27:03.194Z,100785.81
2023-02-17T15:29:30.572Z,100790.00
2023-02-17T15:32:01.096Z,100781.16
2023-02-17T15:34:32.324Z,100781.09
2023-02-17T15:37:00.308Z,100779.44
2023-02-17T15:39:28.920Z,100781.59
2023-02-17T15:42:00.580Z,100793.00
2023-02-17T15:44:35.382Z,100786.47
2023-02-17T15:47:02.446Z,100793.63
2023-02-17T15:49:29.465Z,100804.81
2023-02-17T15:51:56.739Z,100806.53
2023-02-17T15:54:23.612Z,100801.88
2023-02-17T15:56:53.860Z,100804.63
2023-02-17T15:59:23.531Z,100810.50
2023-02-17T16:01:50.551Z,100813.06
2023-02-17T16:04:18.172Z,100811.56
2023-02-17T16:06:45.125Z,100819.16
2023-02-17T16:09:12.191Z,100815.81
2023-02-17T16:11:47.736Z,100825.28
2023-02-17T16:14:24.264Z,100821.34
2023-02-17T16:16:51.388Z,100826.38
2023-02-17T16:19:18.528Z,100827.44
2023-02-17T16:21:47.163Z,100830.41
2023-02-17T16:24:14.285Z,100839.03
2023-02-17T16:26:42.341Z,100834.81
2023-02-17T16:29:14.378Z,100838.22
2023-02-17T16:31:43.094Z,100849.00
2023-02-17T16:34:15.800Z,100846.47
2023-02-17T16:36:42.935Z,100847.50
2023-02-17T16:39:13.594Z,100846.44
2023-02-17T16:41:41.831Z,100841.59
2023-02-17T16:44:13.219Z,100847.31
2023-02-17T16:46:48.260Z,100834.22
2023-02-17T16:49:24.580Z,100842.69
2023-02-17T16:51:52.006Z,100853.44
2023-02-17T16:54:19.002Z,100835.88
2023-02-17T16:56:48.387Z,100835.69
2023-02-17T16:59:16.257Z,100834.84
2023-02-17T17:01:43.305Z,100844.13
2023-02-17T17:04:11.811Z,100843.91
2023-02-17T17:06:43.132Z,100844.97
2023-02-17T17:09:16.029Z,100846.28
2023-02-17T17:11:43.068Z,100843.50
2023-02-17T17:14:10.207Z,100845.41
2023-02-17T17:16:37.933Z,100846.66
2023-02-17T17:19:05.131Z,100858.88
2023-02-17T17:21:33.721Z,100851.72
2023-02-17T17:24:00.633Z,100845.41
2023-02-17T17:26:32.040Z,100850.66
2023-02-17T17:28:59.453Z,100857.00
2023-02-17T17:31:26.925Z,100863.56
2023-02-17T17:33:54.040Z,100860.59
2023-02-17T17:36:24.393Z,100856.81
2023-02-17T17:38:54.195Z,100861.03
2023-02-17T17:41:22.410Z,100858.94
2023-02-17T17:43:49.329Z,100859.53
2023-02-17T17:46:18.496Z,100856.59
2023-02-17T17:48:45.874Z,100869.03
2023-02-17T17:51:15.340Z,100865.88
2023-02-17T17:53:42.876Z,100866.56
2023-02-17T17:56:14.348Z,100873.09
2023-02-17T17:58:41.203Z,100877.53
2023-02-17T18:01:08.053Z,100872.44
2023-02-17T18:03:35.100Z,100873.94
2023-02-17T18:06:02.574Z,100871.19
2023-02-17T18:08:30.728Z,100871.78
2023-02-17T18:10:58.049Z,100870.72
2023-02-17T18:13:27.711Z,100880.28
2023-02-17T18:15:55.123Z,100877.31
2023-02-17T18:18:22.849Z,100870.72
2023-02-17T18:20:49.637Z,100870.31
2023-02-17T18:23:16.749Z,100870.28
2023-02-17T18:25:43.591Z,100859.75
2023-02-17T18:28:10.751Z,100860.59
2023-02-17T18:30:39.023Z,100863.34
2023-02-17T18:33:06.010Z,100867.59
2023-02-17T18:35:34.861Z,100871.16
2023-02-17T18:38:02.014Z,100872.00
2023-02-17T18:40:29.113Z,100865.22
2023-02-17T18:42:56.470Z,100864.38
2023-02-17T18:45:23.581Z,100870.31
2023-02-17T18:47:51.767Z,100876.19
2023-02-17T18:50:19.468Z,100869.66
2023-02-17T18:52:46.840Z,100871.13
2023-02-17T18:55:15.046Z,100866.06
2023-02-17T18:57:42.408Z,100868.56
2023-02-17T19:00:11.485Z,100868.13
2023-02-17T19:02:38.834Z,100859.28
2023-02-17T19:05:08.703Z,100864.34
2023-02-17T19:07:35.793Z,100861.59
2023-02-17T19:10:02.761Z,100854.84
2023-02-17T19:12:29.859Z,100857.38
2023-02-17T19:14:57.000Z,100861.59
2023-02-17T19:17:24.868Z,100854.66
2023-02-17T19:19:52.521Z,100849.16
2023-02-17T19:22:20.748Z,100833.75
2023-02-17T19:24:51.443Z,100830.16
2023-02-17T19:27:18.512Z,100835.66
2023-02-17T19:29:45.404Z,100826.78
2023-02-17T19:32:12.584Z,100827.41
2023-02-17T19:34:39.738Z,100817.66
2023-02-17T19:37:06.825Z,100829.91
2023-02-17T19:39:36.050Z,100830.97
2023-02-17T19:42:03.760Z,100830.75
2023-02-17T19:44:31.180Z,100827.19
2023-02-17T19:46:58.766Z,100821.28
2023-02-17T19:49:25.643Z,100822.16
2023-02-17T19:51:52.642Z,100813.06
2023-02-17T19:54:19.696Z,100812.00
2023-02-17T19:56:47.837Z,100814.75
2023-02-17T19:59:14.595Z,100813.72
2023-02-17T20:01:43.284Z,100815.81
2023-02-17T20:04:10.352Z,100812.22
2023-02-17T20:06:40.335Z,100799.78
2023-02-17T20:09:09.912Z,100807.81
2023-02-17T20:11:37.009Z,100794.28
2023-02-17T20:14:05.336Z,100796.19
2023-02-17T20:16:32.235Z,100795.56
2023-02-17T20:19:01.276Z,100786.91
2023-02-17T20:21:30.442Z,100783.34
2023-02-17T20:23:58.444Z,100767.72
2023-02-17T20:26:27.550Z,100757.97
2023-02-17T20:28:55.656Z,100748.69
2023-02-17T20:31:26.051Z,100751.44
2023-02-17T20:33:53.523Z,100751.44
2023-02-17T20:36:20.654Z,100751.00
2023-02-17T20:38:48.667Z,100745.91
2023-02-17T20:41:18.067Z,100744.22
2023-02-17T20:43:44.902Z,100741.47
2023-02-17T20:46:14.325Z,100745.69
2023-02-17T20:48:43.151Z,100731.09
2023-02-17T20:51:10.020Z,100722.22
2023-02-17T20:53:36.908Z,100721.38
2023-02-17T20:56:12.227Z,100721.72
2023-02-17T20:58:39.098Z,100728.22
2023-02-17T21:01:07.445Z,100712.56
2023-02-17T21:03:34.244Z,100715.91
2023-02-17T21:06:05.536Z,100712.56
2023-02-17T21:08:33.080Z,100714.00
2023-02-17T21:11:00.204Z,100714.25
2023-02-17T21:13:29.029Z,100707.25
2023-02-17T21:15:56.581Z,100702.06
2023-02-17T21:18:23.651Z,100707.66
2023-02-17T21:20:50.964Z,100716.25
2023-02-17T21:23:19.358Z,100715.50
2023-02-17T21:25:46.589Z,100716.72
2023-02-17T21:28:15.817Z,100713.72
2023-02-17T21:30:46.041Z,100714.97
2023-02-17T21:33:13.077Z,100708.75
2023-02-17T21:35:40.008Z,100706.84
2023-02-17T21:38:06.947Z,100706.00
2023-02-17T21:40:35.116Z,100714.47
2023-02-17T21:43:02.422Z,100723.41
2023-02-17T21:45:29.454Z,100721.72
2023-02-17T21:47:56.649Z,100722.41
2023-02-17T21:50:24.000Z,100729.25
2023-02-17T21:52:50.865Z,100722.81
2023-02-17T21:55:17.976Z,100735.47
2023-02-17T21:57:46.768Z,100730.94
2023-02-17T22:00:15.411Z,100725.78
2023-02-17T22:02:44.241Z,100721.22
2023-02-17T22:05:11.774Z,100725.09
2023-02-17T22:07:38.686Z,100729.28
2023-02-17T22:10:07.333Z,100719.38
2023-02-17T22:12:35.508Z,100728.19
2023-02-17T22:15:05.194Z,100719.41
2023-02-17T22:17:32.119Z,100720.31
2023-02-17T22:19:59.163Z,100713.16
2023-02-17T22:22:26.302Z,100714.84
2023-02-17T22:24:53.103Z,100704.91
2023-02-17T22:27:20.269Z,100709.78
2023-02-17T22:29:47.322Z,100706.00
2023-02-17T22:32:15.754Z,100703.75
2023-02-17T22:34:42.537Z,100699.50
2023-02-17T22:37:09.338Z,100706.66
2023-02-17T22:39:36.163Z,100700.53
2023-02-17T22:42:03.295Z,100693.94
2023-02-17T22:44:30.508Z,100688.69
2023-02-17T22:46:57.601Z,100693.50
2023-02-17T22:49:25.865Z,100691.22
2023-02-17T22:51:52.724Z,100688.50
2023-02-17T22:54:19.525Z,100697.25
2023-02-17T22:56:46.496Z,100686.53
2023-02-17T22:59:13.672Z,100695.91
2023-02-17T23:01:40.837Z,100684.25
2023-02-17T23:04:08.002Z,100681.53
2023-02-17T23:06:37.531Z,100683.34
2023-02-17T23:09:05.466Z,100680.72
2023-02-17T23:11:36.372Z,100660.31
2023-02-17T23:14:03.468Z,100667.00
2023-02-17T23:16:30.625Z,100663.31
2023-02-17T23:18:57.491Z,100664.13
2023-02-17T23:21:24.197Z,100676.91
2023-02-17T23:23:52.647Z,100652.00
2023-02-17T23:26:19.804Z,100636.72
2023-02-17T23:28:46.572Z,100638.34
2023-02-17T23:31:13.445Z,100631.88
2023-02-17T23:33:40.608Z,100634.00
2023-02-17T23:36:09.342Z,100627.06
2023-02-17T23:38:36.438Z,100618.56
2023-02-17T23:41:04.896Z,100629.69
2023-02-17T23:43:32.187Z,100623.13
2023-02-17T23:45:59.331Z,100617.25
2023-02-17T23:48:26.680Z,100611.88
2023-02-17T23:50:56.846Z,100609.81
2023-02-17T23:53:24.215Z,100593.16
2023-02-17T23:56:01.046Z,100601.38
2023-02-17T23:58:29.732Z,100593.81
